createdAt,value
2023-03-13T00:02:21.202Z,6.07
2023-03-13T00:04:53.683Z,4.78
2023-03-13T00:07:26.079Z,5.95
2023-03-13T00:09:58.341Z,6.13
2023-03-13T00:12:30.798Z,6.45
2023-03-13T00:15:03.224Z,6.30
2023-03-13T00:17:36.193Z,5.65
2023-03-13T00:20:10.185Z,4.80
2023-03-13T00:22:42.598Z,5.45
2023-03-13T00:25:15.006Z,6.15
2023-03-13T00:27:47.346Z,3.72
2023-03-13T00:30:19.616Z,7.22
2023-03-13T00:32:52.673Z,6.50
2023-03-13T00:35:25.073Z,6.60
2023-03-13T00:37:57.385Z,6.45
2023-03-13T00:40:29.969Z,4.97
2023-03-13T00:43:02.293Z,4.35
2023-03-13T00:45:34.511Z,5.57
2023-03-13T00:48:07.438Z,5.22
2023-03-13T00:50:39.846Z,4.95
2023-03-13T00:53:12.151Z,3.88
2023-03-13T00:55:56.124Z,3.95
2023-03-13T00:58:30.264Z,5.53
2023-03-13T01:01:11.034Z,6.05
2023-03-13T01:03:47.247Z,3.47
2023-03-13T01:06:21.496Z,4.82
2023-03-13T01:08:54.536Z,4.95
2023-03-13T01:11:28.644Z,4.93
2023-03-13T01:14:02.440Z,5.13
2023-03-13T01:16:36.422Z,3.83
2023-03-13T01:19:13.284Z,4.75
2023-03-13T01:21:46.428Z,4.38
2023-03-13T01:24:19.578Z,3.90
2023-03-13T01:26:51.902Z,5.75
2023-03-13T01:29:24.187Z,5.60
2023-03-13T01:31:56.429Z,4.47
2023-03-13T01:34:31.213Z,3.53
2023-03-13T01:37:03.553Z,4.95
2023-03-13T01:39:35.850Z,3.05
2023-03-13T01:42:08.323Z,4.18
2023-03-13T01:44:50.693Z,4.88
2023-03-13T01:47:24.094Z,4.22
2023-03-13T01:53:00.852Z,3.85
2023-03-13T01:55:35.912Z,4.28
2023-03-13T01:58:08.527Z,5.65
2023-03-13T02:00:43.532Z,4.57
2023-03-13T02:03:19.593Z,5.88
2023-03-13T02:05:52.039Z,5.90
2023-03-13T02:08:31.573Z,4.35
2023-03-13T02:11:10.183Z,6.95
2023-03-13T02:13:43.317Z,5.43
2023-03-13T02:16:16.520Z,4.82
2023-03-13T02:18:53.091Z,4.90
2023-03-13T02:21:38.958Z,3.45
2023-03-13T02:24:23.138Z,4.70
2023-03-13T02:26:56.412Z,4.03
2023-03-13T02:29:29.358Z,4.78
2023-03-13T02:32:01.839Z,5.65
2023-03-13T02:34:37.833Z,6.43
2023-03-13T02:37:12.328Z,4.95
2023-03-13T02:39:47.864Z,5.50
2023-03-13T02:42:22.903Z,4.55
2023-03-13T02:44:55.516Z,4.18
2023-03-13T02:47:27.822Z,5.65
2023-03-13T02:50:01.294Z,3.65
2023-03-13T02:52:38.462Z,4.45
2023-03-13T02:55:17.360Z,4.07
2023-03-13T02:57:51.015Z,3.22
2023-03-13T03:00:26.068Z,6.47
2023-03-13T03:02:58.562Z,5.22
2023-03-13T03:05:30.861Z,6.00
2023-03-13T03:08:03.941Z,5.28
2023-03-13T03:10:37.191Z,4.93
2023-03-13T03:13:10.874Z,4.72
2023-03-13T03:15:43.192Z,5.22
2023-03-13T03:18:15.504Z,5.43
2023-03-13T03:20:47.847Z,3.90
2023-03-13T03:23:20.113Z,5.97
2023-03-13T03:25:52.437Z,4.88
2023-03-13T03:28:25.346Z,5.40
2023-03-13T03:30:57.647Z,5.22
2023-03-13T03:33:29.922Z,4.22
2023-03-13T03:36:04.857Z,5.75
2023-03-13T03:38:39.020Z,5.05
2023-03-13T03:41:13.697Z,5.22
2023-03-13T03:43:47.051Z,6.15
2023-03-13T03:46:21.729Z,6.10
2023-03-13T03:48:54.321Z,3.30
2023-03-13T03:51:27.295Z,6.00
2023-03-13T03:53:59.675Z,4.80
2023-03-13T03:56:34.569Z,4.88
2023-03-13T03:59:07.748Z,5.70
2023-03-13T04:02:02.026Z,4.88
2023-03-13T04:04:35.723Z,4.88
2023-03-13T04:07:37.071Z,9.07
2023-03-13T04:10:10.795Z,6.53
2023-03-13T04:12:48.516Z,5.63
2023-03-13T04:15:21.790Z,8.30
2023-03-13T04:17:54.403Z,7.43
2023-03-13T04:20:28.438Z,6.40
2023-03-13T04:23:00.797Z,4.53
2023-03-13T04:25:33.041Z,5.90
2023-03-13T04:28:06.708Z,5.05
2023-03-13T04:30:45.669Z,5.25
2023-03-13T04:33:38.247Z,5.10
2023-03-13T04:36:33.494Z,4.60
2023-03-13T04:39:28.593Z,5.90
2023-03-13T04:42:16.280Z,5.68
2023-03-13T04:45:07.591Z,5.68
2023-03-13T04:47:49.821Z,6.57
2023-03-13T04:50:34.335Z,6.68
2023-03-13T04:53:38.893Z,4.47
2023-03-13T04:56:43.539Z,4.32
2023-03-13T04:59:25.437Z,4.93
2023-03-13T05:02:33.418Z,4.38
2023-03-13T05:05:33.657Z,5.72
2023-03-13T05:08:23.588Z,3.15
2023-03-13T05:11:05.808Z,5.38
2023-03-13T05:14:01.416Z,4.75
2023-03-13T05:16:59.728Z,5.32
2023-03-13T05:19:50.685Z,4.97
2023-03-13T05:22:41.300Z,6.80
2023-03-13T05:25:20.502Z,4.47
2023-03-13T05:27:52.864Z,6.15
2023-03-13T05:30:43.948Z,6.57
2023-03-13T05:33:32.055Z,7.28
2023-03-13T05:36:30.305Z,9.18
2023-03-13T05:39:22.200Z,11.98
2023-03-13T05:42:03.972Z,24.60
2023-03-13T05:44:53.848Z,34.28
2023-03-13T05:47:39.041Z,29.88
2023-03-13T05:50:22.231Z,21.38
2023-03-13T05:53:05.136Z,17.45
2023-03-13T05:56:01.474Z,13.68
2023-03-13T05:58:46.015Z,10.18
2023-03-13T06:01:53.766Z,9.43
2023-03-13T06:04:34.859Z,6.03
2023-03-13T06:07:07.455Z,7.07
2023-03-13T06:09:40.324Z,3.53
2023-03-13T06:12:14.592Z,3.50
2023-03-13T06:14:46.856Z,2.35
2023-03-13T06:17:29.003Z,3.25
2023-03-13T06:20:01.572Z,2.40
2023-03-13T06:22:34.036Z,2.30
2023-03-13T06:25:07.325Z,2.50
2023-03-13T06:27:41.673Z,2.72
2023-03-13T06:30:14.219Z,3.38
2023-03-13T06:32:46.722Z,2.47
2023-03-13T06:35:19.138Z,3.00
2023-03-13T06:37:51.504Z,3.33
2023-03-13T06:40:23.753Z,4.88
2023-03-13T06:42:56.710Z,3.38
2023-03-13T06:45:29.030Z,2.83
2023-03-13T06:48:01.324Z,2.33
2023-03-13T06:50:37.406Z,4.00
2023-03-13T06:53:15.344Z,2.90
2023-03-13T06:55:48.634Z,2.63
2023-03-13T06:58:31.972Z,2.33
2023-03-13T07:01:06.558Z,2.45
2023-03-13T07:03:40.715Z,2.20
2023-03-13T07:06:13.077Z,2.25
2023-03-13T07:08:45.435Z,2.65
2023-03-13T07:11:18.253Z,2.42
2023-03-13T07:14:00.541Z,3.70
2023-03-13T07:16:42.731Z,3.17
2023-03-13T07:19:15.466Z,2.97
2023-03-13T07:21:48.971Z,4.97
2023-03-13T07:24:21.457Z,3.13
2023-03-13T07:27:04.891Z,2.17
2023-03-13T07:29:40.159Z,4.35
2023-03-13T07:32:12.422Z,3.92
2023-03-13T07:34:44.768Z,2.60
2023-03-13T07:37:17.402Z,2.63
2023-03-13T07:39:49.688Z,2.95
2023-03-13T07:42:22.005Z,3.17
2023-03-13T07:44:54.937Z,2.20
2023-03-13T07:47:27.261Z,4.25
2023-03-13T07:49:59.533Z,3.05
2023-03-13T07:52:31.973Z,2.88
2023-03-13T07:55:05.452Z,3.03
2023-03-13T07:57:37.751Z,2.90
2023-03-13T08:00:17.910Z,3.10
2023-03-13T08:02:50.164Z,2.65
2023-03-13T08:05:22.440Z,3.20
2023-03-13T08:07:54.779Z,2.55
2023-03-13T08:10:27.236Z,2.75
2023-03-13T08:12:59.622Z,3.40
2023-03-13T08:15:32.580Z,3.42
2023-03-13T08:18:04.998Z,3.25
2023-03-13T08:20:37.443Z,3.15
2023-03-13T08:23:09.765Z,3.58
2023-03-13T08:25:42.130Z,4.28
2023-03-13T08:28:14.540Z,3.75
2023-03-13T08:30:47.679Z,3.67
2023-03-13T08:33:20.006Z,3.15
2023-03-13T08:35:52.341Z,3.70
2023-03-13T08:38:24.647Z,3.85
2023-03-13T08:40:57.403Z,4.07
2023-03-13T08:43:29.701Z,4.30
2023-03-13T08:46:02.700Z,3.65
2023-03-13T08:48:35.239Z,4.15
2023-03-13T08:51:09.178Z,4.25
2023-03-13T08:53:43.934Z,3.67
2023-03-13T08:56:18.668Z,4.53
2023-03-13T08:58:52.225Z,3.40
2023-03-13T09:01:26.723Z,3.58
2023-03-13T09:04:03.242Z,3.85
2023-03-13T09:06:37.972Z,4.82
2023-03-13T09:09:10.908Z,3.63
2023-03-13T09:11:43.239Z,4.47
2023-03-13T09:14:15.679Z,4.00
2023-03-13T09:16:49.134Z,3.47
2023-03-13T09:19:21.511Z,3.85
2023-03-13T09:21:53.811Z,3.63
2023-03-13T09:24:26.225Z,4.07
2023-03-13T09:27:01.356Z,3.08
2023-03-13T09:29:37.416Z,2.95
2023-03-13T09:32:10.806Z,3.25
2023-03-13T09:34:43.105Z,4.00
2023-03-13T09:37:15.403Z,4.65
2023-03-13T09:39:48.385Z,3.60
2023-03-13T09:42:24.136Z,3.90
2023-03-13T09:45:03.416Z,3.63
2023-03-13T09:47:42.338Z,3.78
2023-03-13T09:50:18.577Z,4.00
2023-03-13T09:52:55.634Z,4.93
2023-03-13T09:55:32.695Z,4.13
2023-03-13T09:58:13.068Z,4.32
2023-03-13T10:00:51.067Z,3.33
2023-03-13T10:03:29.119Z,4.05
2023-03-13T10:06:05.632Z,3.60
2023-03-13T10:08:37.973Z,4.00
2023-03-13T10:11:16.902Z,3.83
2023-03-13T10:13:55.377Z,3.78
2023-03-13T10:16:34.629Z,3.60
2023-03-13T10:19:14.606Z,3.35
2023-03-13T10:21:51.237Z,3.80
2023-03-13T10:24:32.051Z,3.67
2023-03-13T10:27:04.359Z,3.60
2023-03-13T10:29:38.040Z,3.85
2023-03-13T10:32:13.521Z,3.17
2023-03-13T10:34:52.006Z,2.75
2023-03-13T10:37:26.755Z,3.67
2023-03-13T10:40:12.869Z,3.88
2023-03-13T10:42:45.792Z,3.25
2023-03-13T10:45:23.924Z,3.25
2023-03-13T10:48:01.046Z,3.92
2023-03-13T10:50:35.069Z,3.13
2023-03-13T10:53:31.502Z,2.97
2023-03-13T10:56:11.365Z,3.22
2023-03-13T10:58:46.089Z,2.70
2023-03-13T11:01:22.103Z,4.35
2023-03-13T11:03:56.385Z,4.22
2023-03-13T11:06:31.273Z,4.45
2023-03-13T11:09:11.677Z,4.18
2023-03-13T11:11:46.679Z,4.43
2023-03-13T11:14:21.021Z,3.80
2023-03-13T11:16:55.365Z,4.90
2023-03-13T11:19:42.994Z,4.57
2023-03-13T11:22:38.306Z,6.32
2023-03-13T11:25:20.601Z,5.15
2023-03-13T11:28:08.095Z,5.72
2023-03-13T11:30:54.299Z,4.72
2023-03-13T11:33:38.809Z,4.13
2023-03-13T11:36:19.216Z,4.75
2023-03-13T11:38:55.266Z,3.92
2023-03-13T11:41:42.027Z,4.35
2023-03-13T11:44:23.496Z,5.00
2023-03-13T11:47:12.627Z,5.78
2023-03-13T11:50:08.343Z,5.07
2023-03-13T11:52:58.135Z,5.38
2023-03-13T11:55:49.261Z,7.43
2023-03-13T11:58:41.511Z,6.72
2023-03-13T12:01:16.999Z,5.43
2023-03-13T12:03:57.619Z,5.18
2023-03-13T12:06:32.786Z,5.40
2023-03-13T12:09:12.164Z,6.60
2023-03-13T12:11:52.503Z,6.60
2023-03-13T12:14:30.129Z,6.40
2023-03-13T12:17:05.863Z,9.02
2023-03-13T12:19:45.377Z,6.60
2023-03-13T12:22:22.966Z,6.13
2023-03-13T12:24:59.878Z,5.57
2023-03-13T12:27:40.496Z,7.50
2023-03-13T12:30:22.234Z,6.55
2023-03-13T12:33:01.826Z,9.70
2023-03-13T12:38:17.059Z,7.68
2023-03-13T12:40:56.975Z,7.10
2023-03-13T12:43:32.582Z,6.13
2023-03-13T12:46:21.564Z,6.72
2023-03-13T12:49:13.877Z,6.47
2023-03-13T12:52:04.352Z,6.63
2023-03-13T12:54:48.888Z,8.05
2023-03-13T12:58:00.245Z,8.20
2023-03-13T13:00:36.237Z,6.95
2023-03-13T13:03:20.069Z,7.50
2023-03-13T13:06:05.594Z,6.30
2023-03-13T13:08:40.989Z,6.70
2023-03-13T13:11:55.017Z,7.53
2023-03-13T13:15:03.564Z,7.25
2023-03-13T13:18:03.519Z,7.20
2023-03-13T13:20:44.785Z,7.57
2023-03-13T13:23:33.443Z,7.80
2023-03-13T13:26:45.467Z,7.15
2023-03-13T13:29:57.225Z,6.55
2023-03-13T13:32:44.012Z,6.68
2023-03-13T13:35:31.234Z,6.13
2023-03-13T13:38:39.452Z,7.00
2023-03-13T13:41:37.476Z,6.90
2023-03-13T13:44:29.555Z,6.47
2023-03-13T13:47:02.799Z,6.53
2023-03-13T13:49:50.893Z,7.50
2023-03-13T13:52:36.437Z,6.55
2023-03-13T13:55:32.848Z,6.95
2023-03-13T13:58:11.398Z,7.40
2023-03-13T14:00:47.826Z,7.88
2023-03-13T14:03:23.136Z,6.53
2023-03-13T14:06:00.116Z,7.47
2023-03-13T14:08:38.532Z,7.32
2023-03-13T14:11:24.450Z,8.13
2023-03-13T14:14:09.030Z,7.13
2023-03-13T14:16:45.604Z,7.20
2023-03-13T14:19:26.806Z,7.30
2023-03-13T14:22:01.346Z,8.73
2023-03-13T14:24:34.907Z,8.15
2023-03-13T14:27:15.121Z,7.82
2023-03-13T14:30:00.220Z,7.82
2023-03-13T14:32:33.380Z,8.00
2023-03-13T14:35:07.244Z,7.40
2023-03-13T14:37:42.804Z,7.38
2023-03-13T14:40:24.817Z,7.78
2023-03-13T14:42:59.028Z,7.82
2023-03-13T14:45:33.108Z,9.20
2023-03-13T14:48:16.994Z,8.70
2023-03-13T14:50:59.670Z,7.53
2023-03-13T14:53:52.621Z,7.90
2023-03-13T14:56:34.757Z,13.18
2023-03-13T14:59:16.803Z,9.27
2023-03-13T15:01:58.752Z,7.47
2023-03-13T15:04:51.613Z,7.03
2023-03-13T15:07:26.057Z,11.20
2023-03-13T15:10:00.143Z,8.70
2023-03-13T15:12:43.670Z,10.25
2023-03-13T15:15:16.259Z,9.55
2023-03-13T15:17:48.975Z,8.98
2023-03-13T15:20:22.338Z,8.02
2023-03-13T15:22:54.609Z,7.63
2023-03-13T15:25:26.877Z,8.60
2023-03-13T15:27:59.862Z,7.85
2023-03-13T15:30:32.349Z,7.10
2023-03-13T15:33:04.759Z,8.25
2023-03-13T15:35:37.102Z,8.40
2023-03-13T15:38:13.872Z,8.05
2023-03-13T15:40:46.514Z,9.45
2023-03-13T15:43:21.081Z,7.93
2023-03-13T15:45:53.607Z,7.25
2023-03-13T15:48:27.582Z,7.03
2023-03-13T15:51:03.309Z,6.63
2023-03-13T15:53:36.163Z,6.53
2023-03-13T15:56:15.039Z,7.30
2023-03-13T15:58:48.581Z,7.80
2023-03-13T16:01:22.361Z,8.98
2023-03-13T16:03:55.877Z,6.47
2023-03-13T16:06:30.587Z,7.50
2023-03-13T16:09:05.902Z,8.88
2023-03-13T16:11:38.259Z,16.75
2023-03-13T16:14:11.318Z,8.18
2023-03-13T16:16:43.675Z,8.45
2023-03-13T16:19:16.190Z,8.23
2023-03-13T16:21:49.052Z,8.02
2023-03-13T16:24:21.480Z,7.50
2023-03-13T16:26:53.861Z,14.55
2023-03-13T16:29:26.966Z,15.30
2023-03-13T16:31:59.254Z,8.95
2023-03-13T16:34:31.572Z,9.45
2023-03-13T16:37:11.231Z,10.13
2023-03-13T16:39:44.462Z,13.60
2023-03-13T16:42:16.775Z,9.88
2023-03-13T16:44:49.819Z,9.10
2023-03-13T16:47:27.212Z,6.55
2023-03-13T16:49:59.528Z,5.35
2023-03-13T16:52:31.849Z,4.95
2023-03-13T16:55:04.853Z,8.52
2023-03-13T16:57:37.242Z,8.60
2023-03-13T17:00:15.341Z,9.63
2023-03-13T17:02:47.855Z,6.60
2023-03-13T17:05:20.518Z,5.75
2023-03-13T17:07:53.563Z,6.20
2023-03-13T17:10:28.100Z,5.03
2023-03-13T17:13:01.001Z,4.13
2023-03-13T17:15:34.066Z,4.05
2023-03-13T17:18:06.553Z,2.90
2023-03-13T17:20:39.006Z,2.75
2023-03-13T17:23:11.307Z,5.63
2023-03-13T17:25:46.755Z,13.43
2023-03-13T17:28:19.084Z,8.65
2023-03-13T17:30:52.083Z,5.03
2023-03-13T17:33:24.390Z,6.18
2023-03-13T17:35:57.046Z,8.82
2023-03-13T17:38:29.505Z,17.25
2023-03-13T17:41:01.944Z,18.77
2023-03-13T17:43:34.877Z,15.93
2023-03-13T17:46:17.190Z,14.63
2023-03-13T17:48:51.898Z,15.63
2023-03-13T17:51:26.572Z,30.65
2023-03-13T17:53:59.179Z,22.58
2023-03-13T17:56:35.646Z,21.58
2023-03-13T17:59:13.031Z,21.63
2023-03-13T18:01:46.160Z,23.27
2023-03-13T18:04:18.519Z,27.80
2023-03-13T18:06:50.913Z,36.13
2023-03-13T18:09:23.222Z,24.55
2023-03-13T18:11:55.903Z,23.92
2023-03-13T18:14:28.331Z,21.48
2023-03-13T18:17:01.650Z,21.42
2023-03-13T18:19:34.023Z,19.13
2023-03-13T18:22:06.731Z,13.75
2023-03-13T18:24:39.207Z,16.75
2023-03-13T18:27:13.514Z,21.33
2023-03-13T18:29:48.277Z,39.88
2023-03-13T18:32:21.347Z,31.35
2023-03-13T18:34:53.766Z,29.98
2023-03-13T18:37:27.985Z,32.17
2023-03-13T18:40:01.609Z,23.30
2023-03-13T18:42:33.991Z,22.25
2023-03-13T18:45:07.789Z,33.42
2023-03-13T18:47:40.742Z,31.42
2023-03-13T18:50:24.319Z,28.13
2023-03-13T18:52:59.069Z,32.55
2023-03-13T18:55:31.471Z,29.70
2023-03-13T18:58:03.860Z,28.40
2023-03-13T19:00:36.521Z,19.73
2023-03-13T19:03:09.631Z,20.42
2023-03-13T19:05:42.135Z,22.35
2023-03-13T19:08:14.481Z,19.50
2023-03-13T19:10:47.037Z,20.02
2023-03-13T19:13:19.434Z,20.90
2023-03-13T19:15:51.779Z,19.13
2023-03-13T19:18:24.752Z,21.58
2023-03-13T19:20:57.964Z,28.05
2023-03-13T19:23:30.224Z,26.52
2023-03-13T19:26:02.674Z,27.38
2023-03-13T19:28:34.994Z,29.00
2023-03-13T19:31:07.380Z,22.35
2023-03-13T19:33:40.622Z,22.90
2023-03-13T19:36:13.959Z,21.83
2023-03-13T19:38:46.222Z,24.10
2023-03-13T19:41:18.585Z,23.20
2023-03-13T19:43:50.964Z,24.80
2023-03-13T19:46:25.316Z,21.13
2023-03-13T19:49:00.135Z,24.10
2023-03-13T19:51:32.662Z,23.83
2023-03-13T19:54:05.182Z,22.02
2023-03-13T19:56:38.967Z,24.38
2023-03-13T19:59:15.092Z,20.90
2023-03-13T20:01:47.785Z,21.73
2023-03-13T20:04:20.975Z,14.60
2023-03-13T20:06:53.352Z,19.60
2023-03-13T20:09:25.766Z,21.25
2023-03-13T20:11:58.157Z,23.98
2023-03-13T20:14:30.405Z,24.20
2023-03-13T20:17:03.057Z,26.45
2023-03-13T20:19:35.994Z,31.13
2023-03-13T20:22:09.045Z,29.88
2023-03-13T20:24:56.964Z,25.50
2023-03-13T20:27:29.221Z,23.60
2023-03-13T20:30:02.301Z,26.50
2023-03-13T20:32:34.792Z,19.85
2023-03-13T20:35:12.215Z,20.77
2023-03-13T20:37:44.593Z,31.75
2023-03-13T20:40:17.052Z,29.92
2023-03-13T20:42:49.450Z,30.55
2023-03-13T20:45:21.715Z,34.17
2023-03-13T20:47:54.439Z,42.83
2023-03-13T20:50:27.607Z,44.67
2023-03-13T20:52:59.916Z,31.33
2023-03-13T20:55:32.451Z,19.85
2023-03-13T20:58:04.864Z,24.60
2023-03-13T21:00:37.148Z,32.78
2023-03-13T21:03:09.784Z,22.83
2023-03-13T21:05:43.384Z,25.27
2023-03-13T21:08:15.654Z,27.48
2023-03-13T21:10:48.050Z,28.38
2023-03-13T21:13:20.454Z,34.92
2023-03-13T21:15:59.800Z,35.30
2023-03-13T21:18:32.185Z,39.58
2023-03-13T21:21:06.965Z,45.92
2023-03-13T21:23:39.364Z,35.47
2023-03-13T21:26:12.839Z,32.88
2023-03-13T21:28:45.144Z,25.70
2023-03-13T21:31:19.006Z,27.48
2023-03-13T21:33:51.424Z,32.00
2023-03-13T21:36:24.535Z,30.80
2023-03-13T21:38:57.060Z,36.90
2023-03-13T21:41:29.432Z,41.80
2023-03-13T21:44:02.354Z,41.60
2023-03-13T21:46:34.778Z,40.83
2023-03-13T21:49:07.079Z,35.47
2023-03-13T21:51:40.140Z,32.53
2023-03-13T21:54:12.393Z,33.88
2023-03-13T21:56:44.672Z,34.55
2023-03-13T21:59:17.349Z,34.05
2023-03-13T22:01:49.704Z,35.80
2023-03-13T22:04:22.076Z,29.95
2023-03-13T22:06:55.302Z,36.13
2023-03-13T22:09:27.728Z,28.58
2023-03-13T22:12:00.190Z,23.60
2023-03-13T22:14:32.846Z,23.75
2023-03-13T22:17:05.235Z,22.02
2023-03-13T22:19:37.650Z,24.08
2023-03-13T22:22:10.665Z,24.50
2023-03-13T22:24:43.213Z,28.13
2023-03-13T22:27:16.879Z,25.10
2023-03-13T22:29:49.169Z,26.90
2023-03-13T22:32:21.435Z,27.48
2023-03-13T22:34:53.812Z,24.83
2023-03-13T22:37:26.950Z,25.15
2023-03-13T22:39:59.280Z,24.70
2023-03-13T22:42:31.538Z,23.98
2023-03-13T22:45:04.617Z,25.95
2023-03-13T22:47:37.103Z,25.38
2023-03-13T22:50:11.242Z,25.98
2023-03-13T22:52:44.178Z,29.25
2023-03-13T22:55:16.652Z,28.30
2023-03-13T22:57:49.072Z,29.15
2023-03-13T23:00:21.569Z,33.25
2023-03-13T23:02:54.385Z,27.02
2023-03-13T23:05:26.670Z,26.65
2023-03-13T23:07:59.768Z,28.45
2023-03-13T23:10:32.216Z,24.52
2023-03-13T23:13:04.787Z,20.80
2023-03-13T23:15:54.777Z,22.52
2023-03-13T23:18:27.949Z,24.83
2023-03-13T23:21:04.854Z,26.65
2023-03-13T23:23:38.072Z,25.33
2023-03-13T23:26:12.379Z,23.30
2023-03-13T23:28:44.722Z,24.35
2023-03-13T23:31:18.987Z,20.88
2023-03-13T23:33:51.286Z,24.02
2023-03-13T23:36:23.560Z,21.20
2023-03-13T23:38:57.604Z,18.08
2023-03-13T23:41:30.113Z,22.58
2023-03-13T23:44:02.404Z,21.20
2023-03-13T23:46:35.473Z,18.58
2023-03-13T23:49:07.796Z,21.20
2023-03-13T23:51:40.068Z,24.60
2023-03-13T23:54:13.044Z,19.10
2023-03-13T23:56:45.314Z,20.10
2023-03-13T23:59:17.981Z,20.55
